地図

経路データ

SID SEASON NUMBER BASIN SUBBASIN NAME ISO_TIME NATURE LAT LON WMO_WIND WMO_PRES WMO_AGENCY TRACK_TYPE DIST2LAND LANDFALL IFLAG USA_AGENCY USA_ATCF_ID USA_LAT USA_LON USA_RECORD USA_STATUS USA_WIND USA_PRES USA_SSHS USA_R34_NE USA_R34_SE USA_R34_SW USA_R34_NW USA_R50_NE USA_R50_SE USA_R50_SW USA_R50_NW USA_R64_NE USA_R64_SE USA_R64_SW USA_R64_NW USA_POCI USA_ROCI USA_RMW USA_EYE TOKYO_LAT TOKYO_LON TOKYO_GRADE TOKYO_WIND TOKYO_PRES TOKYO_R50_DIR TOKYO_R50_LONG TOKYO_R50_SHORT TOKYO_R30_DIR TOKYO_R30_LONG TOKYO_R30_SHORT TOKYO_LAND CMA_LAT CMA_LON CMA_CAT CMA_WIND CMA_PRES HKO_LAT HKO_LON HKO_CAT HKO_WIND HKO_PRES NEWDELHI_LAT NEWDELHI_LON NEWDELHI_GRADE NEWDELHI_WIND NEWDELHI_PRES NEWDELHI_CI NEWDELHI_DP NEWDELHI_POCI REUNION_LAT REUNION_LON REUNION_TYPE REUNION_WIND REUNION_PRES REUNION_TNUM REUNION_CI REUNION_RMW REUNION_R34_NE REUNION_R34_SE REUNION_R34_SW REUNION_R34_NW REUNION_R50_NE REUNION_R50_SE REUNION_R50_SW REUNION_R50_NW REUNION_R64_NE REUNION_R64_SE REUNION_R64_SW REUNION_R64_NW BOM_LAT BOM_LON BOM_TYPE BOM_WIND BOM_PRES BOM_TNUM BOM_CI BOM_RMW BOM_R34_NE BOM_R34_SE BOM_R34_SW BOM_R34_NW BOM_R50_NE BOM_R50_SE BOM_R50_SW BOM_R50_NW BOM_R64_NE BOM_R64_SE BOM_R64_SW BOM_R64_NW BOM_ROCI BOM_POCI BOM_EYE BOM_POS_METHOD BOM_PRES_METHOD NADI_LAT NADI_LON NADI_CAT NADI_WIND NADI_PRES WELLINGTON_LAT WELLINGTON_LON WELLINGTON_WIND WELLINGTON_PRES DS824_LAT DS824_LON DS824_STAGE DS824_WIND DS824_PRES TD9636_LAT TD9636_LON TD9636_STAGE TD9636_WIND TD9636_PRES TD9635_LAT TD9635_LON TD9635_WIND TD9635_PRES TD9635_ROCI NEUMANN_LAT NEUMANN_LON NEUMANN_CLASS NEUMANN_WIND NEUMANN_PRES MLC_LAT MLC_LON MLC_CLASS MLC_WIND MLC_PRES USA_GUST BOM_GUST BOM_GUST_PER REUNION_GUST REUNION_GUST_PER USA_SEAHGT USA_SEARAD_NE USA_SEARAD_SE USA_SEARAD_SW USA_SEARAD_NW STORM_SPEED STORM_DIR
2016278N16181 2016 77 EP CP SONGDA 2016-10-03 18:00:00 NR 16.4000 180.500 main 2159 2159 _O____________ -1 16.4000 180.500 7 1008 0 0 0 17 275
2016278N16181 2016 77 WP MM SONGDA 2016-10-03 21:00:00 NR 16.4784 179.608 main 2246 2246 _P____________ -1 16.4784 179.608 7 1008 0 0 18 272
2016278N16181 2016 77 WP MM SONGDA 2016-10-04 00:00:00 TS 16.4500 178.675 1008 tokyo main 2336 2336 OO____________ jtwc_wp WP232016 16.3000 178.300 DB 20 1007 -3 1011 150 60 16.5000 178.800 2 1008 0 0 0 15 269
2016278N16181 2016 77 WP MM SONGDA 2016-10-04 03:00:00 TS 16.4572 178.074 main 2397 2397 PP____________ WP232016 16.4874 177.943 DB 20 1007 -3 1011 150 60 16.4421 178.140 2 1007 0 0 11 272
2016278N16181 2016 77 WP MM SONGDA 2016-10-04 06:00:00 TS 16.4857 177.557 1006 tokyo main 2448 2448 OO____________ jtwc_wp WP232016 16.6000 177.500 DB 20 1007 -3 1011 150 60 16.4000 177.600 2 1006 0 0 0 10 274
2016278N16181 2016 77 WP MM SONGDA 2016-10-04 09:00:00 TS 16.5263 177.027 main 2508 2508 PP____________ WP232016 16.6128 176.935 DB 20 1007 -3 1011 150 60 16.4398 177.120 2 1006 0 0 10 280
2016278N16181 2016 77 WP MM SONGDA 2016-10-04 12:00:00 TS 16.6500 176.550 1006 tokyo main 2542 2553 OO____________ jtwc_wp WP232016 16.7000 176.400 DB 20 1007 -3 1011 150 60 16.6000 176.700 2 1006 0 0 0 9 301
2016278N16181 2016 77 WP MM SONGDA 2016-10-04 15:00:00 TS 16.9833 176.222 main 2573 2570 PP____________ WP232016 17.0544 176.122 DB 20 1007 -3 1011 150 60 16.9122 176.322 2 1006 0 0 10 318
2016278N16181 2016 77 WP MM SONGDA 2016-10-04 18:00:00 TS 17.4000 175.850 1006 tokyo main 2592 2592 OO____________ jtwc_wp WP232016 17.5000 175.800 DB 20 1007 -3 1011 150 60 17.3000 175.900 2 1006 0 0 0 12 312
2016278N16181 2016 77 WP MM SONGDA 2016-10-04 21:00:00 TS 17.8025 175.260 main 2642 2642 PP____________ WP232016 17.9103 175.161 DB 20 1007 -3 1011 150 60 17.6947 175.360 2 1007 0 0 14 299
2016278N16181 2016 77 WP MM SONGDA 2016-10-05 00:00:00 TS 18.1000 174.550 1008 tokyo main 2705 2716 OO____________ jtwc_wp WP232016 18.2000 174.400 DB 20 1007 -3 1011 150 60 18.0000 174.700 2 1008 0 0 0 14 286
2016278N16181 2016 77 WP MM SONGDA 2016-10-05 03:00:00 TS 18.1886 173.815 main 2785 2785 PP____________ WP232016 18.2672 173.700 DB 20 1007 -3 1011 150 60 18.1100 173.930 2 1008 0 0 14 272
2016278N16181 2016 77 WP MM SONGDA 2016-10-05 06:00:00 TS 18.1500 173.050 1008 tokyo main 2857 2857 OO____________ jtwc_wp WP232016 18.2000 173.000 DB 20 1007 -3 1011 150 60 18.1000 173.100 2 1008 0 0 0 14 266
2016278N16181 2016 77 WP MM SONGDA 2016-10-05 09:00:00 TS 18.0935 172.296 main 2942 2942 PP____________ WP232016 18.1220 172.323 DB 17 1008 -3 1011 150 60 18.0650 172.270 2 1008 0 0 14 264
2016278N16181 2016 77 WP MM SONGDA 2016-10-05 12:00:00 TS 18.0000 171.550 1008 tokyo main 3016 3016 OO____________ jtwc_wp WP232016 18.0000 171.600 DB 15 1010 -3 1011 150 60 18.0000 171.500 2 1008 0 0 0 14 261
2016278N16181 2016 77 WP MM SONGDA 2016-10-05 15:00:00 TS 17.8810 170.821 main 3101 3084 PP____________ WP232016 17.8203 170.742 DB 15 1010 -3 1011 150 60 17.9417 170.900 2 1007 0 0 14 262
2016278N16181 2016 77 WP MM SONGDA 2016-10-05 18:00:00 TS 17.8000 170.100 1006 tokyo main 3084 3037 OO____________ jtwc_wp WP232016 17.7000 169.900 DB 15 1010 -3 1011 150 60 17.9000 170.300 2 1006 0 0 0 14 268
2016278N16181 2016 77 WP MM SONGDA 2016-10-05 21:00:00 TS 17.8269 169.401 main 3037 2999 PP____________ WP232016 17.7689 169.265 DB 15 1010 -3 1011 150 60 17.8849 169.537 2 1007 0 0 14 274
2016278N16181 2016 77 WP MM SONGDA 2016-10-06 00:00:00 TS 17.9000 168.650 1008 tokyo main 2999 2948 OO____________ jtwc_wp WP232016 17.9000 168.600 DB 15 1010 -3 1011 150 60 17.9000 168.700 2 1008 0 0 0 16 275
2016278N16181 2016 77 WP MM SONGDA 2016-10-06 03:00:00 TS 17.9615 167.750 main 2948 2891 PP____________ WP232016 17.9731 167.658 DB 17 1008 -3 1011 150 60 17.9499 167.843 2 1007 0 0 17 273
2016278N16181 2016 77 WP MM SONGDA 2016-10-06 06:00:00 TS 18.0000 166.850 1006 tokyo main 2891 2843 OO____________ jtwc_wp WP232016 18.0000 166.700 DB 20 1007 -3 1011 150 60 18.0000 167.000 2 1006 0 0 0 16 270
2016278N16181 2016 77 WP MM SONGDA 2016-10-06 09:00:00 TS 17.9747 166.072 main 2843 2792 PP____________ WP232016 17.9495 165.940 DB 20 1008 -3 1011 150 60 17.9998 166.205 2 1007 0 0 14 268
2016278N16181 2016 77 WP MM SONGDA 2016-10-06 12:00:00 TS 17.9500 165.400 1008 tokyo main 2802 2767 OO____________ jtwc_wp WP232016 17.9000 165.300 DB 20 1009 -3 1011 150 60 18.0000 165.500 2 1008 0 0 0 12 271
2016278N16181 2016 77 WP MM SONGDA 2016-10-06 15:00:00 TS 17.9922 164.816 main 2767 2739 PP____________ WP232016 17.9422 164.720 DB 20 1008 -3 1011 150 60 18.0421 164.913 2 1008 0 0 11 275
2016278N16181 2016 77 WP MM SONGDA 2016-10-06 18:00:00 TS 18.0500 164.300 1008 tokyo main 2748 2717 OO____________ jtwc_wp WP232016 18.0000 164.200 DB 20 1007 -3 1011 150 60 18.1000 164.400 2 1008 0 0 0 9 274
2016278N16181 2016 77 WP MM SONGDA 2016-10-06 21:00:00 TS 18.0520 163.822 main 2721 2694 PP____________ WP232016 17.9772 163.707 DB 22 1005 -3 1010 155 55 18.1269 163.937 2 1008 0 0 9 274
2016278N16181 2016 77 WP MM SONGDA 2016-10-07 00:00:00 TS 18.1222 163.311 1008 tokyo main 2694 2683 OOO___________ jtwc_wp WP232016 18.0000 163.200 TD 25 1004 -1 1010 160 50 18.2000 163.400 2 1008 0 0 0 18.3000 163.400 1 25 1002 11 283
2016278N16181 2016 77 WP MM SONGDA 2016-10-07 03:00:00 TS 18.3126 162.645 main 2678 2662 PPP___________ WP232016 18.1695 162.660 TD 25 1004 -1 1009 160 50 18.3853 162.630 2 1007 0 0 18.4532 162.645 1 25 1002 14 287
2016278N16181 2016 77 WP MM SONGDA 2016-10-07 06:00:00 TS 18.5273 161.900 1006 tokyo main 2662 2648 OOO___________ jtwc_wp WP232016 18.4000 162.000 TD 25 1004 -1 1008 160 50 18.6000 161.800 2 1006 0 0 0 18.6000 161.900 1 25 1002 15 285
2016278N16181 2016 77 WP MM SONGDA 2016-10-07 09:00:00 TS 18.7073 161.127 main 2644 2623 PPP___________ WP232016 18.6231 161.108 TD 25 1004 -1 1008 160 50 18.7568 161.107 2 1006 0 0 18.7420 161.165 1 25 1002 15 283
2016278N16181 2016 77 WP MM SONGDA 2016-10-07 12:00:00 TS 18.8667 160.333 1006 tokyo main 2629 2610 OOO___________ jtwc_wp WP232016 18.8000 160.200 TD 25 1004 -1 1008 160 50 18.9000 160.400 2 1006 0 0 0 18.9000 160.400 1 25 1002 15 282
2016278N16181 2016 77 WP MM SONGDA 2016-10-07 15:00:00 TS 19.0123 159.545 main 2605 2548 PPP___________ WP232016 18.8566 159.534 TD 25 1004 -1 1008 160 50 19.0652 159.550 2 1006 0 0 19.1150 159.550 1 25 1002 15 280
2016278N16181 2016 77 WP MM SONGDA 2016-10-07 18:00:00 TS 19.1333 158.767 1006 tokyo main 2548 2484 OOO___________ jtwc_wp WP232016 18.9000 158.900 TD 25 1004 -1 1008 160 50 19.2000 158.700 2 1006 0 0 0 19.3000 158.700 1 25 1002 15 278
2016278N16181 2016 77 WP MM SONGDA 2016-10-07 21:00:00 TS 19.2189 158.004 main 2484 2429 PPP___________ WP232016 19.0352 158.100 TD 25 1004 -1 1008 160 50 19.2569 157.985 2 1005 0 0 19.3646 157.927 1 27 1001 14 277
2016278N16181 2016 77 WP MM SONGDA 2016-10-08 00:00:00 TS 19.3000 157.267 1004 tokyo main 2429 2374 OOO___________ jtwc_wp WP232016 19.2000 157.300 TD 25 1004 -1 1008 160 50 19.3000 157.300 2 1004 0 0 0 19.4000 157.200 1 29 1000 14 277
2016278N16181 2016 77 WP MM SONGDA 2016-10-08 03:00:00 TS 19.3962 156.571 main 2374 2319 PPP___________ WP232016 19.3340 156.672 TD 27 1002 -1 1008 160 50 19.3774 156.550 2 1003 0 0 19.4771 156.492 1 29 1000 13 280
2016278N16181 2016 77 WP MM SONGDA 2016-10-08 06:00:00 TS 19.5308 155.862 1002 tokyo main 2319 2251 OOOO__________ jtwc_wp WP232016 19.5000 156.000 TD 30 1000 -1 1008 160 50 19.5000 155.800 2 1002 0 0 0 19.6000 155.800 1 29 1000 19.5000 155.800 TD 25 1002 14 283
2016278N16181 2016 77 WP MM SONGDA 2016-10-08 09:00:00 TS 19.7124 155.103 main 2251 2190 PPPP__________ WP232016 19.7206 155.065 TD 30 1000 -1 1008 160 50 19.6619 155.115 2 1001 0 0 19.7770 155.115 1 31 999 19.6677 155.132 TD 27 1001 15 286
2016278N16181 2016 77 WP MM SONGDA 2016-10-08 12:00:00 TS 19.9533 154.320 35 1000 tokyo main 2174 2114 OOOO__________ jtwc_wp WP232016 20.0000 154.100 TD 30 1000 -1 1008 160 50 19.9000 154.400 3 35 1000 0 9 90 90 0 20.0000 154.400 2 34 998 19.9000 154.400 TD 30 1000 16 290
2016278N16181 2016 77 WP MM SONGDA 2016-10-08 15:00:00 TS 20.2598 153.516 main 2099 2024 PPPP__________ WP232016 20.3342 153.327 TD 35 996 0 20 20 15 15 1008 160 45 20.2352 153.550 3 35 1000 0 9 90 90 20.2347 153.622 2 34 998 20.2350 153.565 TD 32 999 17 293
2016278N16181 2016 77 WP MM SONGDA 2016-10-08 18:00:00 TS 20.6000 152.700 35 1000 tokyo main 2024 1950 OOOO__________ jtwc_wp WP232016 20.7000 152.600 TS 40 993 0 40 40 30 30 1008 160 40 20.6000 152.700 3 35 1000 0 9 90 90 0 20.5000 152.800 2 34 998 20.6000 152.700 TS 35 998 17 292
2016278N16181 2016 77 WP MM SONGDA 2016-10-08 21:00:00 TS 20.8918 151.886 main 1950 1883 PPPP__________ WP232016 21.0351 151.777 TS 42 997 0 45 45 30 30 1008 160 37 20.8845 151.969 3 35 1000 0 9 90 90 20.7627 151.920 2 36 996 20.8847 151.877 TS 37 996 16 293
2016278N16181 2016 77 WP MM SONGDA 2016-10-09 00:00:00 TS 21.2250 151.125 35 1000 tokyo main 1878 1808 OOOO__________ jtwc_wp WP232016 21.4000 151.000 TS 45 1001 0 50 50 30 30 1008 160 35 21.2000 151.300 3 35 1000 0 9 90 90 0 21.1000 151.100 2 38 995 21.2000 151.100 TS 40 995 55 15 300
2016278N16181 2016 77 WP MM SONGDA 2016-10-09 03:00:00 TS 21.6552 150.478 main 1798 1728 PPPP__________ WP232016 21.8050 150.392 TS 47 993 0 55 50 30 30 1008 157 35 21.6120 150.657 3 37 998 0 9 90 90 21.5618 150.470 2 41 993 21.6419 150.392 TS 40 995 15 308
2016278N16181 2016 77 WP MM SONGDA 2016-10-09 06:00:00 TS 22.1500 149.850 40 996 tokyo main 1713 1642 OOOO__________ jtwc_wp WP232016 22.3000 149.800 TS 50 985 0 60 50 30 30 23 17 1008 155 35 22.1000 150.000 3 40 996 0 9 90 90 0 22.1000 149.900 2 44 992 22.1000 149.700 TS 40 995 16 309
2016278N16181 2016 77 WP MM SONGDA 2016-10-09 09:00:00 TS 22.6701 149.128 main 1627 1567 OPPP__________ jtwc_wp WP232016 22.9000 149.100 TS 50 985 0 70 60 30 30 29 23 1008 155 35 22.6576 149.243 3 42 993 0 9 90 90 22.6648 149.258 2 46 991 22.4578 148.912 TS 42 992 16 304
2016278N16181 2016 77 WP MM SONGDA 2016-10-09 12:00:00 TS 23.0500 148.425 45 990 tokyo main 1552 1493 OOOO__________ jtwc_wp WP232016 23.0000 148.400 TS 55 982 0 80 70 30 30 36 30 1009 165 30 23.2000 148.500 3 45 990 0 9 90 90 0 23.2000 148.600 3 48 990 22.8000 148.200 TS 45 990 14 303
2016278N16181 2016 77 WP MM SONGDA 2016-10-09 15:00:00 TS 23.4571 147.810 main 1483 1420 PPPP__________ WP232016 23.3919 147.760 TS 57 980 0 85 80 35 35 39 36 1009 165 27 23.6297 147.854 3 50 985 0 9 105 105 23.6301 147.912 3 51 987 23.1768 147.712 TS 47 987 13 308
2016278N16181 2016 77 WP MM SONGDA 2016-10-09 18:00:00 TS 23.8750 147.275 55 980 tokyo main 1420 1366 OOOO__________ jtwc_wp WP232016 23.9000 147.200 TS 60 978 0 90 90 40 40 43 43 1009 165 25 24.0000 147.300 4 55 980 9 40 40 9 120 120 0 24.0000 147.300 3 54 985 23.6000 147.300 STS 50 985 12 310
2016278N16181 2016 77 WP MM SONGDA 2016-10-09 21:00:00 TS 24.2624 146.774 main 1356 1308 PPPP__________ WP232016 24.2499 146.690 TS 65 974 1 90 90 40 40 43 43 11 11 1009 170 20 24.3499 146.797 4 60 975 9 40 40 9 120 120 24.3571 146.847 3 59 980 24.0928 146.763 STS 55 980 11 313
2016278N16181 2016 77 WP MM SONGDA 2016-10-10 00:00:00 TS 24.6500 146.375 65 970 tokyo main 1298 1254 OOOO__________ jtwc_wp WP232016 24.6000 146.300 TY 70 970 1 90 90 40 40 43 43 22 22 1009 175 15 24.7000 146.400 5 65 970 9 40 40 9 120 120 0 24.7000 146.500 4 64 975 24.6000 146.300 STS 60 975 10 321
2016278N16181 2016 77 WP MM SONGDA 2016-10-10 03:00:00 TS 25.0567 146.075 main 1244 1195 PPPP__________ WP232016 25.0348 146.032 TY 82 961 1 100 95 50 65 50 47 26 24 1008 170 12 25.0924 146.090 5 72 962 9 40 40 9 135 135 25.0350 146.147 4 70 967 25.0647 146.032 STS 70 965 9 332
2016278N16181 2016 77 WP MM SONGDA 2016-10-10 06:00:00 TS 25.4750 145.900 80 955 tokyo main 1195 1151 OOOO__________ jtwc_wp WP232016 25.5000 145.900 TY 95 952 2 110 100 60 90 57 51 26 44 30 27 13 23 1008 165 10 10 25.5000 145.900 5 80 955 9 40 40 9 150 150 0 25.4000 145.900 4 77 960 25.5000 145.900 T 80 955 9 345
2016278N16181 2016 77 WP MM SONGDA 2016-10-10 09:00:00 TS 25.8962 145.827 main 1151 1112 PPPP__________ WP232016 25.9575 145.870 TY 102 946 3 115 100 65 95 60 51 29 48 32 27 15 25 1008 172 10 25.8924 145.812 5 85 947 9 50 50 9 165 150 25.8349 145.805 4 85 952 25.9000 145.820 T 85 950 9 355
2016278N16181 2016 77 WP MM SONGDA 2016-10-10 12:00:00 TS 26.3250 145.825 90 940 tokyo main 1112 1063 OOOO__________ jtwc_wp WP232016 26.4000 145.900 TY 110 941 3 120 100 70 100 64 52 33 52 34 27 17 27 1009 180 10 10 26.3000 145.800 5 90 940 9 60 60 1 180 150 0 26.3000 145.800 5 93 945 26.3000 145.800 ST 90 945 9 0
2016278N16181 2016 77 WP MM SONGDA 2016-10-10 15:00:00 TS 26.7812 145.806 main 1063 1025 PPPP__________ WP232016 26.8225 145.893 TY 112 939 3 120 105 80 100 64 55 39 52 34 29 20 27 1009 180 8 26.7650 145.778 5 92 935 9 60 60 1 180 150 26.7725 145.778 5 93 945 26.7650 145.778 ST 90 945 9 0
2016278N16181 2016 77 WP MM SONGDA 2016-10-10 18:00:00 TS 27.2000 145.825 95 930 tokyo main 1025 997 OOOO__________ jtwc_wp WP232016 27.2000 145.900 TY 115 937 4 120 110 90 100 64 58 46 52 34 31 24 27 1009 180 7 5 27.2000 145.800 5 95 930 9 60 60 1 180 150 0 27.2000 145.800 5 93 945 27.2000 145.800 ST 90 945 7 3
2016278N16181 2016 77 WP MM SONGDA 2016-10-10 21:00:00 TS 27.5111 145.860 main 1002 980 PPPP__________ WP232016 27.4998 145.898 TY 110 940 3 120 115 95 100 64 61 48 51 34 32 25 27 1009 180 7 27.5149 145.848 5 92 932 9 60 60 1 180 150 27.5149 145.848 5 90 947 27.5149 145.848 ST 87 947 6 14
2016278N16181 2016 77 WP MM SONGDA 2016-10-11 00:00:00 TS 27.8000 146.000 90 935 tokyo main 980 962 OOOO__________ jtwc_wp WP232016 27.8000 146.000 TY 105 944 3 120 120 100 100 64 64 51 51 34 34 27 27 1009 180 7 5 27.8000 146.000 5 90 935 9 60 60 1 180 150 0 27.8000 146.000 5 87 950 27.8000 146.000 ST 85 950 8 31
2016278N16181 2016 77 WP MM SONGDA 2016-10-11 03:00:00 TS 28.1532 146.305 main 958 948 PPPP__________ WP232016 28.2001 146.297 TY 102 946 3 125 125 105 105 67 67 54 54 35 35 28 28 1009 200 8 28.1426 146.305 5 90 935 9 60 60 1 165 135 28.1351 146.305 5 87 950 28.1351 146.312 ST 85 950 10 40
2016278N16181 2016 77 WP MM SONGDA 2016-10-11 06:00:00 TS 28.5250 146.700 90 935 tokyo main 954 939 OOOO__________ jtwc_wp WP232016 28.6000 146.700 TY 100 948 3 130 130 110 110 70 70 57 57 37 37 30 30 1010 220 10 10 28.5000 146.700 5 90 935 9 60 60 1 150 120 0 28.5000 146.700 5 87 950 28.5000 146.700 ST 85 950 110 10 42
2016278N16181 2016 77 WP MM SONGDA 2016-10-11 09:00:00 TS 28.8644 147.032 main 937 934 PPPP__________ WP232016 28.8768 147.042 TY 107 942 3 135 130 110 110 73 70 57 57 39 37 30 30 1010 220 12 28.8195 147.049 5 92 932 9 60 60 1 150 120 28.8844 147.048 5 90 947 28.8768 146.991 ST 90 945 10 43
2016278N16181 2016 77 WP MM SONGDA 2016-10-11 12:00:00 TS 29.2500 147.475 95 930 tokyo main 936 933 OOOO__________ jtwc_wp WP232016 29.2000 147.500 TY 115 937 4 140 130 110 110 77 71 58 58 41 38 31 31 1010 220 15 20 29.2000 147.500 5 95 930 9 60 60 1 150 120 0 29.3000 147.500 5 93 945 29.3000 147.400 ST 95 940 13 47
2016278N16181 2016 77 WP MM SONGDA 2016-10-11 15:00:00 TS 29.7394 148.103 main 946 938 PPPP__________ WP232016 29.7195 148.153 TY 122 931 4 140 135 120 110 77 74 65 58 41 40 34 31 1008 220 13 29.7268 148.103 5 97 927 9 60 60 1 150 120 29.7269 148.111 5 95 942 29.7845 148.045 ST 97 937 16 51
2016278N16181 2016 77 WP MM SONGDA 2016-10-11 18:00:00 TS 30.2750 148.925 100 925 tokyo main 957 957 OOOO__________ jtwc_wp WP232016 30.3000 149.000 ST 130 926 4 140 140 130 110 78 78 72 59 42 42 38 31 1007 220 12 15 30.3000 148.900 5 100 925 9 60 60 1 150 120 0 30.2000 148.900 5 97 940 30.3000 148.900 SuperT 100 935 18 56
2016278N16181 2016 77 WP MM SONGDA 2016-10-11 21:00:00 TS 30.7676 149.867 main 997 997 PPPP__________ WP232016 30.7840 149.962 ST 127 927 4 140 145 135 115 78 81 75 62 42 43 40 33 1007 220 13 30.7841 149.855 5 100 925 9 60 60 1 150 120 30.7259 149.789 5 97 940 30.7765 149.862 SuperT 97 937 21 60
2016278N16181 2016 77 WP MM SONGDA 2016-10-12 00:00:00 TS 31.3000 151.000 100 925 tokyo main 1054 1054 OOOO__________ jtwc_wp WP232016 31.3000 151.100 TY 125 929 4 140 150 140 120 78 84 78 65 42 45 42 35 1007 220 15 20 31.3000 151.000 5 100 925 9 60 60 1 150 120 0 31.3000 150.900 5 97 940 31.3000 151.000 ST 95 940 24 61
2016278N16181 2016 77 WP MM SONGDA 2016-10-12 03:00:00 TS 31.9125 152.303 main 1132 1132 PPPP__________ WP232016 31.9190 152.376 TY 122 931 4 145 150 145 125 81 84 81 68 43 45 43 36 1007 220 15 31.9265 152.276 5 95 930 9 55 55 1 140 105 31.8780 152.284 5 95 942 31.9265 152.276 ST 90 945 27 61
2016278N16181 2016 77 WP MM SONGDA 2016-10-12 06:00:00 TS 32.5750 153.750 90 935 tokyo main 1232 1232 OOOO__________ jtwc_wp WP232016 32.6000 153.800 TY 120 933 4 150 150 150 130 84 84 84 71 45 45 45 38 1007 220 15 20 32.6000 153.700 5 90 935 9 50 50 3 130 90 0 32.5000 153.800 5 93 945 32.6000 153.700 ST 85 950 27 62
2016278N16181 2016 77 WP MM SONGDA 2016-10-12 09:00:00 TS 33.1928 155.168 main 1336 1336 PPPP__________ WP232016 33.2431 155.237 TY 110 940 3 150 150 155 130 83 83 86 70 44 44 46 37 1007 220 16 33.2005 155.137 5 87 940 9 50 50 3 130 90 33.1271 155.161 5 90 947 33.2005 155.137 ST 85 950 29 62
2016278N16181 2016 77 WP MM SONGDA 2016-10-12 12:00:00 TS 33.9250 156.800 85 945 tokyo main 1423 1417 OOOO__________ jtwc_wp WP232016 34.0000 156.900 TY 100 948 3 150 150 160 130 83 83 89 70 44 44 48 37 1007 220 17 25 33.9000 156.800 5 85 945 9 50 50 3 130 90 0 33.9000 156.700 5 87 950 33.9000 156.800 ST 85 950 34 61
2016278N16181 2016 77 WP MM SONGDA 2016-10-12 15:00:00 TS 34.8421 158.779 main 1425 1415 PPPP__________ WP232016 34.9362 158.883 TY 92 953 2 150 150 165 130 82 82 91 69 44 44 49 37 1006 220 17 34.7722 158.798 5 80 950 9 50 50 3 140 90 34.8876 158.638 5 82 955 34.7722 158.798 ST 80 955 40 61
2016278N16181 2016 77 WP MM SONGDA 2016-10-12 18:00:00 TS 35.9067 161.073 75 955 tokyo main 1439 1435 OOOO__________ jtwc_wp WP232016 36.0000 161.200 TY 85 959 2 150 150 170 130 82 82 94 69 44 44 51 37 1006 220 17 25 35.8000 161.100 5 75 955 9 50 50 3 150 90 0 36.0000 160.900 4 77 960 35.8000 161.100 T 75 960 45 61
2016278N16181 2016 77 WP MM SONGDA 2016-10-12 21:00:00 TS 37.0251 163.625 main 1486 1486 PPPP__________ WP232016 37.0924 163.827 TY 75 966 1 150 160 180 130 81 87 100 68 43 47 54 36 1007 220 23 36.9282 163.663 5 70 962 9 50 50 3 165 105 37.0989 163.386 4 70 965 36.9369 163.622 T 67 967 47 62
2016278N16181 2016 77 WP MM SONGDA 2016-10-13 00:00:00 MX 38.1583 166.275 65 970 tokyo main 1565 1564 OOOO__________ jtwc_wp WP232016 38.2000 166.600 EX 65 974 -4 150 170 190 130 81 93 106 68 43 50 57 36 1008 220 30 38.1000 166.300 5 65 970 9 50 50 3 180 120 0 38.2000 166.000 4 64 970 38.1000 166.300 STS 60 975 46 61
2016278N16181 2016 77 WP MM SONGDA 2016-10-13 03:00:00 MX 39.2779 168.731 main 1570 1570 PPP___________ WP232016 39.2729 169.274 EX 60 978 -4 150 170 190 140 80 93 105 74 1008 220 30 39.2576 168.690 5 979 9 3 39.3008 168.502 4 56 977 STS 44 61
2016278N16181 2016 77 WP MM SONGDA 2016-10-13 06:00:00 ET 40.3000 171.200 988 tokyo main 1614 1610 OOO___________ jtwc_wp WP232016 40.3000 171.900 EX 55 982 -4 150 170 190 150 80 93 105 80 1008 220 30 40.3000 171.100 6 988 0 0 0 40.3000 171.100 9 48 985 42 64
2016278N16181 2016 77 WP MM SONGDA 2016-10-13 09:00:00 ET 41.1094 173.729 main 1672 1656 _PP___________ WP232016 EX -4 41.1215 173.633 6 990 0 0 41.0852 173.921 9 41 988 43 71
2016278N16181 2016 77 WP MM SONGDA 2016-10-13 12:00:00 ET 41.7000 176.600 992 tokyo main 1646 1477 _OO___________ -1 41.7000 176.500 6 992 0 0 0 41.7000 176.900 9 34 992 47 79
2016278N16181 2016 77 WP MM SONGDA 2016-10-13 15:00:00 ET 42.0098 179.894 main 1468 1328 _P____________ -1 42.0098 179.894 6 994 0 0 9 52 86
2016278N16181 2016 77 EP CP SONGDA 2016-10-13 18:00:00 ET 42.1000 183.600 main 1322 _O____________ -1 42.1000 183.600 6 996 0 0 0 55 88

IBTrACS Databaseについて

本データベースは、米国NOAAが公開する1842年以降の世界の熱帯低気圧のベストトラックデータアーカイブInternational Best Track Archive for Climate Stewardship (IBTrACS)を、ウェブで閲覧しやすい形式に変換したものです。

最終更新日:2021-10-19